createdAt,value
2022-11-20T00:00:00.552Z,30.40
2022-11-20T00:02:31.293Z,23.20
2022-11-20T00:05:01.904Z,22.20
2022-11-20T00:07:32.585Z,23.00
2022-11-20T00:10:03.458Z,21.30
2022-11-20T00:12:34.185Z,23.80
2022-11-20T00:15:05.775Z,22.70
2022-11-20T00:17:36.482Z,21.30
2022-11-20T00:20:08.903Z,22.30
2022-11-20T00:22:39.693Z,23.40
2022-11-20T00:25:11.220Z,18.70
2022-11-20T00:27:41.991Z,14.10
2022-11-20T00:30:15.144Z,17.50
2022-11-20T00:32:46.100Z,14.50
2022-11-20T00:35:16.863Z,19.20
2022-11-20T00:37:47.481Z,13.70
2022-11-20T00:40:18.419Z,20.60
2022-11-20T00:42:49.113Z,28.00
2022-11-20T00:45:19.746Z,22.00
2022-11-20T00:47:50.356Z,25.40
2022-11-20T00:50:21.110Z,24.40
2022-11-20T00:52:51.815Z,19.20
2022-11-20T00:55:22.602Z,20.40
2022-11-20T00:57:53.260Z,23.90
2022-11-20T01:00:23.986Z,18.10
2022-11-20T01:02:54.644Z,20.10
2022-11-20T01:05:25.325Z,19.70
2022-11-20T01:07:55.958Z,18.90
2022-11-20T01:10:26.905Z,14.90
2022-11-20T01:13:11.596Z,9.20
2022-11-20T01:15:42.689Z,12.70
2022-11-20T01:18:13.329Z,21.90
2022-11-20T01:20:44.052Z,25.50
2022-11-20T01:23:14.658Z,25.20
2022-11-20T01:25:45.386Z,24.40
2022-11-20T01:28:16.108Z,21.10
2022-11-20T01:30:46.843Z,22.40
2022-11-20T01:33:17.545Z,17.70
2022-11-20T01:35:48.260Z,17.50
2022-11-20T01:38:21.092Z,10.20
2022-11-20T01:40:58.883Z,17.70
2022-11-20T01:43:29.957Z,13.00
2022-11-20T01:46:17.364Z,18.70
2022-11-20T01:48:55.585Z,16.90
2022-11-20T01:51:31.625Z,22.20
2022-11-20T01:54:07.597Z,21.60
2022-11-20T01:56:43.722Z,19.80
2022-11-20T01:59:17.540Z,23.60
2022-11-20T02:01:49.075Z,13.70
2022-11-20T02:04:20.435Z,24.90
2022-11-20T02:06:54.119Z,38.30
2022-11-20T02:09:24.861Z,40.70
2022-11-20T02:11:56.161Z,32.60
2022-11-20T02:14:27.500Z,27.50
2022-11-20T02:16:59.452Z,20.90
2022-11-20T02:19:32.433Z,23.00
2022-11-20T02:22:10.285Z,18.30
2022-11-20T02:24:42.004Z,19.50
2022-11-20T02:27:14.415Z,25.70
2022-11-20T02:29:50.363Z,22.80
2022-11-20T02:32:26.361Z,21.90
2022-11-20T02:34:57.812Z,19.60
2022-11-20T02:37:35.681Z,15.90
2022-11-20T02:40:07.911Z,22.30
2022-11-20T02:42:39.101Z,18.70
2022-11-20T02:45:11.646Z,24.10
2022-11-20T02:47:42.476Z,10.80
2022-11-20T02:50:13.538Z,16.20
2022-11-20T02:52:44.611Z,10.80
2022-11-20T02:55:15.431Z,19.80
2022-11-20T02:57:46.199Z,24.70
2022-11-20T03:00:17.859Z,24.10
2022-11-20T03:02:48.646Z,17.10
2022-11-20T03:05:19.638Z,19.70
2022-11-20T03:07:50.523Z,18.20
2022-11-20T03:10:21.151Z,22.20
2022-11-20T03:12:57.228Z,18.20
2022-11-20T03:15:27.932Z,18.20
2022-11-20T03:17:58.777Z,20.20
2022-11-20T03:20:29.519Z,16.80
2022-11-20T03:23:00.282Z,18.00
2022-11-20T03:25:31.329Z,15.30
2022-11-20T03:28:02.199Z,19.30
2022-11-20T03:30:32.994Z,12.30
2022-11-20T03:33:03.690Z,15.10
2022-11-20T03:35:34.318Z,11.10
2022-11-20T03:38:05.061Z,24.70
2022-11-20T03:40:37.632Z,22.20
2022-11-20T03:43:08.300Z,22.80
2022-11-20T03:45:39.035Z,22.30
2022-11-20T03:48:10.195Z,22.20
2022-11-20T03:50:40.817Z,23.70
2022-11-20T03:53:12.010Z,23.40
2022-11-20T03:55:42.702Z,22.70
2022-11-20T03:58:14.473Z,17.10
2022-11-20T04:00:45.428Z,17.50
2022-11-20T04:03:16.206Z,17.20
2022-11-20T04:05:46.961Z,16.30
2022-11-20T04:08:17.683Z,17.00
2022-11-20T04:10:48.699Z,16.30
2022-11-20T04:13:19.347Z,19.80
2022-11-20T04:15:50.050Z,17.50
2022-11-20T04:18:20.763Z,18.50
2022-11-20T04:20:51.426Z,27.50
2022-11-20T04:23:25.873Z,23.50
2022-11-20T04:26:05.228Z,18.50
2022-11-20T04:28:36.114Z,16.20
2022-11-20T04:31:08.988Z,26.00
2022-11-20T04:33:40.312Z,18.80
2022-11-20T04:36:15.682Z,18.10
2022-11-20T04:38:46.935Z,9.00
2022-11-20T04:41:20.061Z,17.80
2022-11-20T04:43:51.999Z,15.30
2022-11-20T04:46:23.286Z,12.30
2022-11-20T04:48:54.293Z,16.90
2022-11-20T04:51:25.579Z,14.10
2022-11-20T04:53:56.173Z,11.70
2022-11-20T04:56:27.069Z,23.30
2022-11-20T04:58:57.750Z,24.30
2022-11-20T05:01:28.405Z,16.60
2022-11-20T05:03:59.018Z,18.90
2022-11-20T05:06:29.709Z,20.00
2022-11-20T05:09:00.975Z,13.20
2022-11-20T05:11:31.611Z,8.10
2022-11-20T05:14:03.038Z,4.80
2022-11-20T05:16:36.193Z,16.80
2022-11-20T05:19:06.758Z,17.40
2022-11-20T05:21:37.472Z,15.10
2022-11-20T05:24:09.094Z,12.90
2022-11-20T05:26:39.814Z,10.60
2022-11-20T05:29:11.399Z,27.30
2022-11-20T05:31:42.862Z,19.20
2022-11-20T05:34:13.492Z,20.70
2022-11-20T05:36:44.282Z,18.70
2022-11-20T05:39:15.187Z,16.40
2022-11-20T05:41:45.853Z,19.10
2022-11-20T05:44:16.999Z,8.20
2022-11-20T05:46:47.646Z,8.20
2022-11-20T05:49:18.317Z,15.70
2022-11-20T05:51:49.128Z,15.90
2022-11-20T05:54:20.075Z,15.80
2022-11-20T05:56:50.776Z,16.80
2022-11-20T05:59:21.752Z,13.30
2022-11-20T06:01:52.717Z,14.10
2022-11-20T06:04:23.297Z,14.40
2022-11-20T06:06:53.882Z,29.20
2022-11-20T06:09:24.536Z,25.50
2022-11-20T06:11:55.159Z,17.80
2022-11-20T06:14:25.874Z,20.60
2022-11-20T06:16:56.611Z,19.40
2022-11-20T06:19:27.177Z,17.40
2022-11-20T06:21:57.770Z,19.80
2022-11-20T06:24:28.487Z,18.70
2022-11-20T06:26:59.263Z,13.20
2022-11-20T06:29:33.732Z,28.90
2022-11-20T06:32:05.204Z,20.90
2022-11-20T06:34:35.898Z,20.00
2022-11-20T06:37:06.701Z,18.70
2022-11-20T06:39:37.346Z,18.10
2022-11-20T06:42:08.074Z,9.00
2022-11-20T06:44:38.654Z,19.40
2022-11-20T06:47:09.436Z,18.20
2022-11-20T06:49:40.334Z,14.80
2022-11-20T06:52:10.934Z,15.00
2022-11-20T06:54:41.520Z,15.90
2022-11-20T06:57:12.180Z,13.10
2022-11-20T06:59:42.842Z,12.50
2022-11-20T07:02:14.878Z,27.40
2022-11-20T07:04:45.483Z,29.50
2022-11-20T07:07:16.326Z,22.90
2022-11-20T07:09:47.078Z,21.10
2022-11-20T07:12:17.784Z,20.20
2022-11-20T07:14:48.342Z,22.30
2022-11-20T07:17:19.092Z,19.00
2022-11-20T07:19:49.824Z,16.60
2022-11-20T07:22:22.744Z,20.60
2022-11-20T07:24:53.577Z,16.30
2022-11-20T07:27:24.293Z,16.20
2022-11-20T07:29:55.301Z,16.20
2022-11-20T07:32:26.395Z,18.40
2022-11-20T07:34:57.123Z,24.50
2022-11-20T07:37:27.721Z,25.20
2022-11-20T07:39:58.502Z,23.30
2022-11-20T07:42:29.127Z,19.90
2022-11-20T07:45:00.519Z,20.80
2022-11-20T07:47:31.389Z,18.60
2022-11-20T07:50:02.077Z,18.70
2022-11-20T07:52:32.772Z,21.40
2022-11-20T07:55:03.535Z,18.20
2022-11-20T07:57:34.339Z,20.00
2022-11-20T08:00:06.225Z,19.70
2022-11-20T08:02:56.892Z,20.70
2022-11-20T08:05:27.614Z,16.20
2022-11-20T08:07:58.254Z,20.10
2022-11-20T08:10:29.161Z,21.90
2022-11-20T08:13:17.802Z,26.30
2022-11-20T08:15:52.739Z,21.70
2022-11-20T08:18:31.323Z,24.40
2022-11-20T08:23:34.052Z,24.40
2022-11-20T08:26:04.771Z,24.70
2022-11-20T08:28:35.385Z,21.20
2022-11-20T08:31:07.162Z,22.20
2022-11-20T08:33:38.008Z,20.90
2022-11-20T08:36:10.267Z,24.40
2022-11-20T08:38:40.980Z,17.20
2022-11-20T08:41:27.919Z,18.70
2022-11-20T08:44:00.626Z,21.80
2022-11-20T08:46:36.455Z,22.00
2022-11-20T08:49:08.026Z,8.20
2022-11-20T08:51:39.599Z,24.80
2022-11-20T08:54:10.712Z,26.70
2022-11-20T08:56:41.440Z,23.00
2022-11-20T08:59:50.915Z,23.90
2022-11-20T09:02:05.775Z,26.80
2022-11-20T09:04:36.317Z,22.30
2022-11-20T09:07:07.138Z,24.40
2022-11-20T09:09:37.884Z,19.90
2022-11-20T09:12:09.082Z,24.00
2022-11-20T09:14:39.726Z,22.40
2022-11-20T09:17:14.358Z,21.40
2022-11-20T09:19:45.324Z,22.60
2022-11-20T09:22:17.395Z,25.80
2022-11-20T09:24:48.087Z,18.30
2022-11-20T09:27:22.566Z,23.30
2022-11-20T09:29:53.235Z,24.40
2022-11-20T09:32:23.930Z,19.00
2022-11-20T09:34:54.670Z,20.00
2022-11-20T09:37:25.916Z,21.90
2022-11-20T09:39:56.765Z,20.40
2022-11-20T09:42:43.453Z,18.30
2022-11-20T09:45:30.137Z,18.90
2022-11-20T09:48:11.014Z,18.40
2022-11-20T09:51:06.103Z,22.60
2022-11-20T09:53:48.493Z,13.10
2022-11-20T09:56:22.610Z,20.00
2022-11-20T09:58:57.245Z,18.70
2022-11-20T10:01:32.850Z,19.10
2022-11-20T10:04:08.185Z,19.40
2022-11-20T10:06:59.740Z,20.40
2022-11-20T10:09:46.066Z,15.50
2022-11-20T10:12:25.022Z,17.70
2022-11-20T10:15:12.574Z,19.00
2022-11-20T10:18:15.816Z,13.80
2022-11-20T10:20:54.060Z,11.70
2022-11-20T10:23:52.923Z,17.60
2022-11-20T10:26:32.074Z,18.00
2022-11-20T10:31:46.916Z,14.50
2022-11-20T10:34:24.760Z,13.90
2022-11-20T10:37:00.447Z,11.60
2022-11-20T10:39:43.701Z,15.50
2022-11-20T10:42:26.586Z,14.30
2022-11-20T10:45:06.788Z,15.70
2022-11-20T10:47:37.952Z,13.30
2022-11-20T10:50:21.858Z,12.80
2022-11-20T10:53:07.311Z,10.70
2022-11-20T10:55:48.077Z,16.40
2022-11-20T10:58:31.978Z,14.30
2022-11-20T11:01:15.643Z,12.50
2022-11-20T11:03:46.811Z,13.70
2022-11-20T11:06:26.365Z,10.80
2022-11-20T11:08:58.858Z,12.80
2022-11-20T11:11:34.013Z,13.00
2022-11-20T11:14:15.886Z,12.10
2022-11-20T11:16:58.198Z,9.80
2022-11-20T11:19:30.105Z,14.50
2022-11-20T11:22:01.588Z,13.20
2022-11-20T11:24:42.588Z,14.90
2022-11-20T11:27:18.868Z,13.50
2022-11-20T11:29:50.544Z,11.70
2022-11-20T11:32:23.141Z,13.40
2022-11-20T11:35:04.915Z,11.10
2022-11-20T11:37:43.836Z,9.90
2022-11-20T11:40:23.795Z,8.50
2022-11-20T11:42:59.873Z,12.80
2022-11-20T11:45:30.855Z,9.20
2022-11-20T11:48:05.901Z,8.00
2022-11-20T11:50:39.354Z,8.30
2022-11-20T11:53:15.670Z,7.90
2022-11-20T11:55:52.755Z,10.20
2022-11-20T11:58:44.057Z,6.90
2022-11-20T12:01:30.736Z,4.90
2022-11-20T12:04:13.909Z,7.90
2022-11-20T12:06:50.494Z,4.00
2022-11-20T12:09:26.415Z,5.90
2022-11-20T12:12:06.590Z,4.20
2022-11-20T12:14:39.384Z,9.50
2022-11-20T12:17:15.669Z,7.60
2022-11-20T12:19:46.380Z,8.60
2022-11-20T12:22:25.908Z,6.50
2022-11-20T12:25:04.328Z,11.70
2022-11-20T12:28:16.807Z,8.90
2022-11-20T12:30:58.293Z,7.10
2022-11-20T12:33:56.833Z,3.90
2022-11-20T12:36:35.558Z,8.10
2022-11-20T12:39:23.731Z,6.20
2022-11-20T12:42:36.586Z,4.20
2022-11-20T12:45:21.653Z,5.10
2022-11-20T12:48:05.001Z,4.80
2022-11-20T12:51:07.976Z,6.20
2022-11-20T12:53:48.490Z,4.20
2022-11-20T12:56:30.031Z,6.10
2022-11-20T12:59:21.158Z,8.00
2022-11-20T13:01:57.772Z,5.80
2022-11-20T13:05:00.430Z,4.90
2022-11-20T13:07:32.619Z,4.50
2022-11-20T13:10:11.584Z,6.50
2022-11-20T13:12:52.079Z,9.60
2022-11-20T13:15:42.327Z,4.00
2022-11-20T13:18:14.940Z,6.70
2022-11-20T13:20:50.713Z,12.10
2022-11-20T13:23:32.457Z,7.00
2022-11-20T13:26:22.543Z,8.80
2022-11-20T13:29:07.936Z,10.70
2022-11-20T13:34:14.538Z,10.70
2022-11-20T13:36:54.943Z,9.10
2022-11-20T13:39:33.209Z,10.90
2022-11-20T13:42:23.591Z,6.20
2022-11-20T13:45:02.592Z,8.20
2022-11-20T13:47:33.664Z,9.90
2022-11-20T13:50:13.368Z,8.90
2022-11-20T13:52:58.144Z,6.30
2022-11-20T13:55:42.574Z,9.80
2022-11-20T13:58:33.494Z,10.40
2022-11-20T14:01:10.810Z,8.20
2022-11-20T14:04:05.194Z,8.50
2022-11-20T14:06:41.227Z,7.90
2022-11-20T14:09:26.788Z,6.40
2022-11-20T14:11:57.853Z,7.10
2022-11-20T14:14:30.338Z,6.00
2022-11-20T14:17:19.357Z,9.70
2022-11-20T14:19:52.197Z,7.30
2022-11-20T14:22:25.660Z,6.00
2022-11-20T14:25:19.951Z,9.90
2022-11-20T14:27:55.658Z,9.00
2022-11-20T14:30:29.860Z,8.40
2022-11-20T14:33:04.244Z,10.80
2022-11-20T14:35:39.728Z,10.30
2022-11-20T14:38:16.400Z,9.40
2022-11-20T14:40:47.296Z,8.90
2022-11-20T14:43:25.190Z,7.60
2022-11-20T14:46:00.414Z,8.40
2022-11-20T14:48:34.928Z,9.20
2022-11-20T14:51:05.733Z,11.60
2022-11-20T14:53:36.295Z,8.60
2022-11-20T14:56:07.443Z,13.00
2022-11-20T14:58:38.067Z,11.50
2022-11-20T15:01:14.079Z,10.60
2022-11-20T15:03:45.042Z,11.40
2022-11-20T15:06:16.115Z,12.10
2022-11-20T15:08:55.888Z,10.80
2022-11-20T15:11:32.214Z,10.50
2022-11-20T15:14:09.730Z,12.60
2022-11-20T15:16:44.986Z,11.40
2022-11-20T15:19:24.041Z,8.80
2022-11-20T15:21:55.727Z,8.50
2022-11-20T15:24:30.987Z,10.40
2022-11-20T15:27:06.645Z,11.20
2022-11-20T15:29:39.528Z,11.70
2022-11-20T15:32:13.566Z,10.60
2022-11-20T15:34:51.075Z,13.60
2022-11-20T15:37:29.735Z,25.30
2022-11-20T15:40:02.032Z,20.30
2022-11-20T15:42:42.022Z,18.80
2022-11-20T15:45:25.030Z,17.90
2022-11-20T15:48:05.879Z,15.80
2022-11-20T15:50:49.383Z,16.30
2022-11-20T15:53:26.116Z,18.20
2022-11-20T15:55:59.239Z,14.40
2022-11-20T15:58:32.436Z,11.80
2022-11-20T16:01:05.856Z,12.70
2022-11-20T16:03:37.417Z,18.10
2022-11-20T16:06:10.425Z,13.60
2022-11-20T16:08:43.867Z,11.80
2022-11-20T16:11:21.568Z,10.60
2022-11-20T16:14:09.869Z,10.90
2022-11-20T16:16:44.122Z,11.00
2022-11-20T16:19:19.094Z,10.10
2022-11-20T16:21:49.955Z,20.30
2022-11-20T16:24:21.695Z,17.90
2022-11-20T16:27:01.778Z,15.00
2022-11-20T16:29:35.359Z,17.20
2022-11-20T16:32:07.567Z,15.70
2022-11-20T16:34:40.525Z,11.90
2022-11-20T16:37:11.493Z,15.40
2022-11-20T16:39:44.777Z,16.30
2022-11-20T16:44:47.365Z,11.90
2022-11-20T16:47:18.016Z,14.10
2022-11-20T16:49:48.687Z,12.90
2022-11-20T16:52:19.360Z,10.70
2022-11-20T16:54:49.991Z,13.90
2022-11-20T16:57:20.614Z,11.90
2022-11-20T16:59:53.606Z,20.20
2022-11-20T17:02:26.015Z,14.10
2022-11-20T17:04:56.738Z,19.70
2022-11-20T17:07:27.506Z,15.20
2022-11-20T17:09:58.244Z,16.30
2022-11-20T17:12:28.947Z,16.40
2022-11-20T17:14:59.496Z,16.00
2022-11-20T17:17:30.431Z,16.30
2022-11-20T17:20:01.015Z,22.30
2022-11-20T17:22:32.443Z,15.10
2022-11-20T17:25:03.134Z,19.60
2022-11-20T17:27:34.028Z,14.80
2022-11-20T17:30:04.905Z,17.50
2022-11-20T17:32:36.574Z,14.20
2022-11-20T17:35:08.680Z,14.80
2022-11-20T17:37:39.590Z,18.10
2022-11-20T17:40:12.001Z,20.80
2022-11-20T17:42:43.089Z,17.70
2022-11-20T17:45:14.008Z,15.70
2022-11-20T17:47:46.461Z,17.30
2022-11-20T17:50:17.298Z,15.40
2022-11-20T17:52:48.105Z,16.00
2022-11-20T17:55:21.189Z,17.10
2022-11-20T17:57:56.832Z,13.30
2022-11-20T18:00:28.402Z,15.00
2022-11-20T18:02:59.585Z,15.60
2022-11-20T18:05:30.609Z,12.60
2022-11-20T18:08:01.214Z,9.70
2022-11-20T18:10:33.512Z,17.80
2022-11-20T18:13:04.394Z,16.90
2022-11-20T18:15:35.039Z,17.10
2022-11-20T18:18:06.304Z,17.20
2022-11-20T18:20:40.004Z,25.30
2022-11-20T18:23:11.048Z,18.20
2022-11-20T18:25:43.491Z,16.30
2022-11-20T18:28:27.586Z,15.30
2022-11-20T18:31:05.669Z,14.60
2022-11-20T18:33:37.524Z,11.00
2022-11-20T18:36:14.485Z,11.20
2022-11-20T18:38:52.112Z,13.60
2022-11-20T18:41:45.071Z,13.80
2022-11-20T18:44:35.636Z,14.70
2022-11-20T18:47:14.252Z,13.70
2022-11-20T18:52:16.908Z,4.80
2022-11-20T18:54:47.622Z,9.70
2022-11-20T18:57:19.438Z,21.10
2022-11-20T18:59:50.158Z,15.50
2022-11-20T19:02:22.052Z,13.80
2022-11-20T19:04:52.809Z,19.60
2022-11-20T19:07:24.090Z,17.10
2022-11-20T19:09:59.556Z,15.40
2022-11-20T19:12:33.148Z,21.50
2022-11-20T19:15:04.064Z,10.30
2022-11-20T19:17:35.912Z,20.80
2022-11-20T19:20:08.242Z,21.30
2022-11-20T19:22:38.914Z,17.30
2022-11-20T19:25:11.815Z,16.30
2022-11-20T19:27:42.623Z,19.90
2022-11-20T19:30:15.455Z,17.40
2022-11-20T19:32:46.281Z,26.60
2022-11-20T19:35:17.227Z,21.50
2022-11-20T19:37:47.968Z,25.30
2022-11-20T19:40:18.676Z,22.50
2022-11-20T19:42:49.291Z,17.10
2022-11-20T19:45:20.045Z,17.40
2022-11-20T19:48:07.231Z,16.70
2022-11-20T19:50:38.703Z,15.70
2022-11-20T19:53:11.365Z,16.70
2022-11-20T19:55:43.143Z,18.70
2022-11-20T19:58:13.884Z,16.40
2022-11-20T20:00:44.602Z,21.40
2022-11-20T20:03:15.314Z,15.10
2022-11-20T20:05:46.335Z,26.30
2022-11-20T20:08:17.433Z,21.40
2022-11-20T20:10:47.978Z,20.30
2022-11-20T20:13:18.719Z,22.40
2022-11-20T20:15:49.843Z,20.40
2022-11-20T20:18:20.646Z,21.30
2022-11-20T20:20:51.455Z,18.80
2022-11-20T20:23:22.180Z,18.20
2022-11-20T20:25:52.900Z,12.20
2022-11-20T20:28:23.793Z,17.30
2022-11-20T20:30:54.725Z,19.20
2022-11-20T20:33:25.485Z,8.90
2022-11-20T20:35:56.327Z,31.00
2022-11-20T20:38:27.032Z,27.70
2022-11-20T20:40:57.629Z,22.00
2022-11-20T20:43:29.281Z,20.30
2022-11-20T20:46:00.185Z,21.00
2022-11-20T20:48:30.862Z,19.20
2022-11-20T20:51:03.700Z,19.90
2022-11-20T20:53:34.437Z,20.30
2022-11-20T20:56:08.153Z,21.10
2022-11-20T20:58:38.961Z,24.30
2022-11-20T21:01:11.268Z,22.10
2022-11-20T21:03:42.533Z,19.40
2022-11-20T21:06:13.846Z,22.30
2022-11-20T21:08:44.803Z,20.00
2022-11-20T21:11:17.464Z,36.20
2022-11-20T21:13:49.252Z,24.80
2022-11-20T21:16:22.399Z,22.50
2022-11-20T21:18:53.366Z,24.30
2022-11-20T21:21:41.922Z,28.10
2022-11-20T21:24:12.840Z,22.70
2022-11-20T21:26:43.682Z,23.90
2022-11-20T21:29:14.561Z,24.90
2022-11-20T21:31:45.564Z,25.30
2022-11-20T21:34:17.319Z,26.10
2022-11-20T21:36:48.464Z,23.50
2022-11-20T21:39:20.469Z,20.70
2022-11-20T21:41:51.241Z,28.10
2022-11-20T21:44:37.122Z,24.90
2022-11-20T21:47:08.803Z,20.90
2022-11-20T21:49:41.282Z,20.10
2022-11-20T21:52:11.934Z,21.40
2022-11-20T21:54:42.630Z,23.70
2022-11-20T21:57:13.373Z,21.50
2022-11-20T21:59:44.203Z,26.00
2022-11-20T22:02:15.470Z,21.70
2022-11-20T22:04:46.406Z,24.70
2022-11-20T22:07:17.131Z,22.60
2022-11-20T22:09:48.627Z,21.70
2022-11-20T22:12:19.341Z,18.50
2022-11-20T22:14:49.982Z,22.90
2022-11-20T22:17:40.693Z,28.40
2022-11-20T22:20:13.117Z,20.90
2022-11-20T22:22:43.906Z,22.90
2022-11-20T22:25:14.580Z,23.20
2022-11-20T22:27:46.922Z,24.10
2022-11-20T22:30:18.035Z,22.10
2022-11-20T22:32:48.740Z,20.70
2022-11-20T22:35:19.478Z,19.70
2022-11-20T22:37:52.646Z,20.50
2022-11-20T22:40:23.391Z,22.80
2022-11-20T22:42:54.125Z,20.70
2022-11-20T22:45:24.755Z,21.70
2022-11-20T22:47:55.531Z,18.90
2022-11-20T22:50:26.355Z,31.40
2022-11-20T22:52:57.189Z,28.90
2022-11-20T22:55:27.909Z,25.90
2022-11-20T22:57:58.929Z,25.50
2022-11-20T23:00:29.635Z,22.20
2022-11-20T23:03:00.422Z,23.60
2022-11-20T23:05:33.229Z,21.90
2022-11-20T23:08:03.926Z,24.90
2022-11-20T23:10:34.626Z,21.80
2022-11-20T23:13:05.507Z,22.00
2022-11-20T23:15:37.183Z,20.20
2022-11-20T23:18:07.952Z,22.60
2022-11-20T23:20:39.577Z,21.00
2022-11-20T23:23:10.253Z,23.10
2022-11-20T23:25:40.916Z,40.70
2022-11-20T23:28:11.905Z,29.50
2022-11-20T23:30:42.682Z,36.60
2022-11-20T23:33:13.281Z,27.80
2022-11-20T23:35:47.558Z,23.50
2022-11-20T23:38:18.323Z,24.50
2022-11-20T23:40:51.369Z,18.90
2022-11-20T23:43:23.796Z,25.60
2022-11-20T23:46:01.965Z,22.30
2022-11-20T23:48:37.615Z,21.50
2022-11-20T23:51:09.304Z,21.00
2022-11-20T23:53:40.045Z,39.30
2022-11-20T23:56:12.154Z,32.00
2022-11-20T23:58:43.387Z,30.80
